sensor_id;sensor_type;location;lat;lon;timestamp;temperature;humidity
29501;DHT22;16450;50.288;10.966;2023-03-31T00:02:01;8.80;99.90
29501;DHT22;16450;50.288;10.966;2023-03-31T00:05:03;8.80;99.90
29501;DHT22;16450;50.288;10.966;2023-03-31T00:08:05;8.80;99.90
29501;DHT22;16450;50.288;10.966;2023-03-31T00:11:07;8.70;99.90
29501;DHT22;16450;50.288;10.966;2023-03-31T00:14:10;8.70;99.90
29501;DHT22;16450;50.288;10.966;2023-03-31T00:17:12;8.80;99.90
29501;DHT22;16450;50.288;10.966;2023-03-31T00:20:14;8.70;99.90
29501;DHT22;16450;50.288;10.966;2023-03-31T00:23:16;8.70;99.90
29501;DHT22;16450;50.288;10.966;2023-03-31T00:26:18;8.70;99.90
29501;DHT22;16450;50.288;10.966;2023-03-31T00:29:20;8.80;99.90
29501;DHT22;16450;50.288;10.966;2023-03-31T00:32:22;8.80;99.90
29501;DHT22;16450;50.288;10.966;2023-03-31T00:35:23;8.80;99.90
29501;DHT22;16450;50.288;10.966;2023-03-31T00:38:26;8.80;99.90
29501;DHT22;16450;50.288;10.966;2023-03-31T00:41:29;8.80;99.90
29501;DHT22;16450;50.288;10.966;2023-03-31T00:44:31;8.80;99.90
29501;DHT22;16450;50.288;10.966;2023-03-31T00:47:34;8.80;99.90
29501;DHT22;16450;50.288;10.966;2023-03-31T00:50:51;8.80;99.90
29501;DHT22;16450;50.288;10.966;2023-03-31T00:54:02;8.80;99.90
29501;DHT22;16450;50.288;10.966;2023-03-31T00:57:06;8.80;99.90
29501;DHT22;16450;50.288;10.966;2023-03-31T01:00:11;8.80;99.90
29501;DHT22;16450;50.288;10.966;2023-03-31T01:03:16;8.80;99.90
29501;DHT22;16450;50.288;10.966;2023-03-31T01:06:19;8.80;99.90
29501;DHT22;16450;50.288;10.966;2023-03-31T01:09:22;8.80;99.90
29501;DHT22;16450;50.288;10.966;2023-03-31T01:12:26;8.80;99.90
29501;DHT22;16450;50.288;10.966;2023-03-31T01:15:28;8.80;99.90
29501;DHT22;16450;50.288;10.966;2023-03-31T01:18:30;8.80;99.90
29501;DHT22;16450;50.288;10.966;2023-03-31T01:35:47;8.90;99.90
29501;DHT22;16450;50.288;10.966;2023-03-31T01:42:33;8.90;99.90
29501;DHT22;16450;50.288;10.966;2023-03-31T01:49:33;8.90;99.90
29501;DHT22;16450;50.288;10.966;2023-03-31T01:52:58;8.90;99.90
29501;DHT22;16450;50.288;10.966;2023-03-31T01:56:32;8.90;99.90
29501;DHT22;16450;50.288;10.966;2023-03-31T01:59:41;8.90;99.90
29501;DHT22;16450;50.288;10.966;2023-03-31T02:05:58;8.80;99.90
29501;DHT22;16450;50.288;10.966;2023-03-31T02:09:08;8.80;99.90
29501;DHT22;16450;50.288;10.966;2023-03-31T02:12:11;8.80;99.90
29501;DHT22;16450;50.288;10.966;2023-03-31T02:15:21;8.80;99.90
29501;DHT22;16450;50.288;10.966;2023-03-31T02:18:27;8.80;99.90
29501;DHT22;16450;50.288;10.966;2023-03-31T02:21:36;8.70;99.90
29501;DHT22;16450;50.288;10.966;2023-03-31T02:24:40;8.80;99.90
29501;DHT22;16450;50.288;10.966;2023-03-31T02:27:46;8.70;99.90
29501;DHT22;16450;50.288;10.966;2023-03-31T02:34:29;8.70;99.90
29501;DHT22;16450;50.288;10.966;2023-03-31T02:37:31;8.80;99.90
29501;DHT22;16450;50.288;10.966;2023-03-31T02:40:33;8.80;99.90
29501;DHT22;16450;50.288;10.966;2023-03-31T02:43:35;8.70;99.90
29501;DHT22;16450;50.288;10.966;2023-03-31T02:46:38;8.70;99.90
29501;DHT22;16450;50.288;10.966;2023-03-31T02:49:45;8.80;99.90
29501;DHT22;16450;50.288;10.966;2023-03-31T02:53:02;8.80;99.90
29501;DHT22;16450;50.288;10.966;2023-03-31T03:06:25;8.70;99.90
29501;DHT22;16450;50.288;10.966;2023-03-31T03:13:22;8.70;99.90
29501;DHT22;16450;50.288;10.966;2023-03-31T03:16:35;8.70;99.90
29501;DHT22;16450;50.288;10.966;2023-03-31T03:19:40;8.70;99.90
29501;DHT22;16450;50.288;10.966;2023-03-31T03:22:42;8.80;99.90
29501;DHT22;16450;50.288;10.966;2023-03-31T03:25:44;8.70;99.90
29501;DHT22;16450;50.288;10.966;2023-03-31T03:28:47;8.70;99.90
29501;DHT22;16450;50.288;10.966;2023-03-31T03:31:49;8.70;99.90
29501;DHT22;16450;50.288;10.966;2023-03-31T03:34:51;8.70;99.90
29501;DHT22;16450;50.288;10.966;2023-03-31T03:37:53;8.70;99.90
29501;DHT22;16450;50.288;10.966;2023-03-31T03:40:54;8.70;99.90
29501;DHT22;16450;50.288;10.966;2023-03-31T03:43:56;8.70;99.90
29501;DHT22;16450;50.288;10.966;2023-03-31T03:46:58;8.70;99.90
29501;DHT22;16450;50.288;10.966;2023-03-31T03:50:01;8.70;99.90
29501;DHT22;16450;50.288;10.966;2023-03-31T03:53:04;8.70;99.90
29501;DHT22;16450;50.288;10.966;2023-03-31T03:56:06;8.60;99.90
29501;DHT22;16450;50.288;10.966;2023-03-31T03:59:10;8.60;99.90
29501;DHT22;16450;50.288;10.966;2023-03-31T04:02:12;8.60;99.90
29501;DHT22;16450;50.288;10.966;2023-03-31T04:05:14;8.60;99.90
29501;DHT22;16450;50.288;10.966;2023-03-31T04:08:19;8.60;99.90
29501;DHT22;16450;50.288;10.966;2023-03-31T04:11:20;8.60;99.90
29501;DHT22;16450;50.288;10.966;2023-03-31T04:14:22;8.50;99.90
29501;DHT22;16450;50.288;10.966;2023-03-31T04:17:25;8.50;99.90
29501;DHT22;16450;50.288;10.966;2023-03-31T04:20:33;8.50;99.90
29501;DHT22;16450;50.288;10.966;2023-03-31T04:23:39;8.50;99.90
29501;DHT22;16450;50.288;10.966;2023-03-31T04:26:46;8.50;99.90
29501;DHT22;16450;50.288;10.966;2023-03-31T04:29:52;8.40;99.90
29501;DHT22;16450;50.288;10.966;2023-03-31T04:33:01;8.40;99.90
29501;DHT22;16450;50.288;10.966;2023-03-31T04:36:05;8.40;99.90
29501;DHT22;16450;50.288;10.966;2023-03-31T04:39:18;8.40;99.90
29501;DHT22;16450;50.288;10.966;2023-03-31T04:42:27;8.30;99.90
29501;DHT22;16450;50.288;10.966;2023-03-31T04:45:29;8.30;99.90
29501;DHT22;16450;50.288;10.966;2023-03-31T04:48:31;8.40;99.90
29501;DHT22;16450;50.288;10.966;2023-03-31T04:51:33;8.20;99.90
29501;DHT22;16450;50.288;10.966;2023-03-31T04:54:34;8.20;99.90
29501;DHT22;16450;50.288;10.966;2023-03-31T04:57:36;8.20;99.90
29501;DHT22;16450;50.288;10.966;2023-03-31T05:00:38;8.20;99.90
29501;DHT22;16450;50.288;10.966;2023-03-31T05:03:40;8.10;99.90
29501;DHT22;16450;50.288;10.966;2023-03-31T05:06:42;8.10;99.90
29501;DHT22;16450;50.288;10.966;2023-03-31T05:09:44;8.10;99.90
29501;DHT22;16450;50.288;10.966;2023-03-31T05:12:47;8.10;99.90
29501;DHT22;16450;50.288;10.966;2023-03-31T05:15:49;8.20;99.90
29501;DHT22;16450;50.288;10.966;2023-03-31T05:18:53;8.20;99.90
29501;DHT22;16450;50.288;10.966;2023-03-31T05:21:55;8.20;99.90
29501;DHT22;16450;50.288;10.966;2023-03-31T05:24:57;8.30;99.90
29501;DHT22;16450;50.288;10.966;2023-03-31T05:27:59;8.30;99.90
29501;DHT22;16450;50.288;10.966;2023-03-31T05:31:02;8.30;99.90
29501;DHT22;16450;50.288;10.966;2023-03-31T05:34:04;8.30;99.90
29501;DHT22;16450;50.288;10.966;2023-03-31T05:37:06;8.40;99.90
29501;DHT22;16450;50.288;10.966;2023-03-31T05:40:09;8.40;99.90
29501;DHT22;16450;50.288;10.966;2023-03-31T05:43:11;8.40;99.90
29501;DHT22;16450;50.288;10.966;2023-03-31T05:46:13;8.40;99.90
29501;DHT22;16450;50.288;10.966;2023-03-31T05:49:15;8.40;99.90
29501;DHT22;16450;50.288;10.966;2023-03-31T05:52:18;8.40;99.90
29501;DHT22;16450;50.288;10.966;2023-03-31T05:55:20;8.40;99.90
29501;DHT22;16450;50.288;10.966;2023-03-31T05:58:21;8.50;99.90
29501;DHT22;16450;50.288;10.966;2023-03-31T06:01:25;8.50;99.90
29501;DHT22;16450;50.288;10.966;2023-03-31T06:04:28;8.50;99.90
29501;DHT22;16450;50.288;10.966;2023-03-31T06:07:30;8.60;99.90
29501;DHT22;16450;50.288;10.966;2023-03-31T06:10:32;8.60;99.90
29501;DHT22;16450;50.288;10.966;2023-03-31T06:13:36;8.60;99.90
29501;DHT22;16450;50.288;10.966;2023-03-31T06:16:38;8.60;99.90
29501;DHT22;16450;50.288;10.966;2023-03-31T06:19:40;8.70;99.90
29501;DHT22;16450;50.288;10.966;2023-03-31T06:22:42;8.70;99.90
29501;DHT22;16450;50.288;10.966;2023-03-31T06:25:46;8.70;99.90
29501;DHT22;16450;50.288;10.966;2023-03-31T06:28:53;8.70;99.90
29501;DHT22;16450;50.288;10.966;2023-03-31T06:31:55;8.70;99.90
29501;DHT22;16450;50.288;10.966;2023-03-31T06:34:57;8.80;99.90
29501;DHT22;16450;50.288;10.966;2023-03-31T06:37:59;8.80;99.90
29501;DHT22;16450;50.288;10.966;2023-03-31T06:41:02;8.80;99.90
29501;DHT22;16450;50.288;10.966;2023-03-31T06:44:04;8.80;99.90
29501;DHT22;16450;50.288;10.966;2023-03-31T06:47:06;8.80;99.90
29501;DHT22;16450;50.288;10.966;2023-03-31T06:50:09;8.80;99.90
29501;DHT22;16450;50.288;10.966;2023-03-31T06:53:11;8.80;99.90
29501;DHT22;16450;50.288;10.966;2023-03-31T06:56:13;8.80;99.90
29501;DHT22;16450;50.288;10.966;2023-03-31T06:59:17;8.80;99.90
29501;DHT22;16450;50.288;10.966;2023-03-31T07:02:18;8.80;99.90
29501;DHT22;16450;50.288;10.966;2023-03-31T07:05:21;8.90;99.90
29501;DHT22;16450;50.288;10.966;2023-03-31T07:08:30;8.80;99.90
29501;DHT22;16450;50.288;10.966;2023-03-31T07:11:32;8.80;99.90
29501;DHT22;16450;50.288;10.966;2023-03-31T07:14:35;9.00;99.90
29501;DHT22;16450;50.288;10.966;2023-03-31T07:17:37;8.80;99.90
29501;DHT22;16450;50.288;10.966;2023-03-31T07:20:42;8.80;99.90
29501;DHT22;16450;50.288;10.966;2023-03-31T07:23:44;8.80;99.90
29501;DHT22;16450;50.288;10.966;2023-03-31T07:26:46;8.80;99.90
29501;DHT22;16450;50.288;10.966;2023-03-31T07:29:49;8.80;99.90
29501;DHT22;16450;50.288;10.966;2023-03-31T07:32:52;8.70;99.90
29501;DHT22;16450;50.288;10.966;2023-03-31T07:35:55;8.80;99.90
29501;DHT22;16450;50.288;10.966;2023-03-31T07:39:12;8.80;99.90
29501;DHT22;16450;50.288;10.966;2023-03-31T07:42:14;8.80;99.90
29501;DHT22;16450;50.288;10.966;2023-03-31T07:45:16;8.80;99.90
29501;DHT22;16450;50.288;10.966;2023-03-31T07:48:18;8.80;99.90
29501;DHT22;16450;50.288;10.966;2023-03-31T07:51:22;8.80;99.90
29501;DHT22;16450;50.288;10.966;2023-03-31T07:54:25;8.80;99.90
29501;DHT22;16450;50.288;10.966;2023-03-31T07:57:27;8.80;99.90
29501;DHT22;16450;50.288;10.966;2023-03-31T08:00:29;8.80;99.90
29501;DHT22;16450;50.288;10.966;2023-03-31T08:03:31;8.80;99.90
29501;DHT22;16450;50.288;10.966;2023-03-31T08:06:35;8.80;99.90
29501;DHT22;16450;50.288;10.966;2023-03-31T08:09:38;8.80;99.90
29501;DHT22;16450;50.288;10.966;2023-03-31T08:12:41;8.80;99.90
29501;DHT22;16450;50.288;10.966;2023-03-31T08:15:43;8.80;99.90
29501;DHT22;16450;50.288;10.966;2023-03-31T08:18:45;8.80;99.90
29501;DHT22;16450;50.288;10.966;2023-03-31T08:21:48;8.80;99.90
29501;DHT22;16450;50.288;10.966;2023-03-31T08:24:49;8.70;99.90
29501;DHT22;16450;50.288;10.966;2023-03-31T08:27:51;8.80;99.90
29501;DHT22;16450;50.288;10.966;2023-03-31T08:30:53;8.70;99.90
29501;DHT22;16450;50.288;10.966;2023-03-31T08:33:55;8.70;99.90
29501;DHT22;16450;50.288;10.966;2023-03-31T08:36:58;8.70;99.90
29501;DHT22;16450;50.288;10.966;2023-03-31T08:40:01;8.70;99.90
29501;DHT22;16450;50.288;10.966;2023-03-31T08:43:11;8.70;99.90
29501;DHT22;16450;50.288;10.966;2023-03-31T08:46:17;8.70;99.90
29501;DHT22;16450;50.288;10.966;2023-03-31T08:49:20;8.70;99.90
29501;DHT22;16450;50.288;10.966;2023-03-31T08:52:28;8.70;99.90
29501;DHT22;16450;50.288;10.966;2023-03-31T08:55:49;8.70;99.90
29501;DHT22;16450;50.288;10.966;2023-03-31T08:58:52;8.70;99.90
29501;DHT22;16450;50.288;10.966;2023-03-31T09:02:19;8.60;99.90
29501;DHT22;16450;50.288;10.966;2023-03-31T09:05:36;8.60;99.90
29501;DHT22;16450;50.288;10.966;2023-03-31T09:09:01;8.60;99.90
29501;DHT22;16450;50.288;10.966;2023-03-31T09:12:09;8.60;99.90
29501;DHT22;16450;50.288;10.966;2023-03-31T09:18:34;8.50;99.90
29501;DHT22;16450;50.288;10.966;2023-03-31T09:21:40;8.50;99.90
29501;DHT22;16450;50.288;10.966;2023-03-31T09:24:58;8.50;99.90
29501;DHT22;16450;50.288;10.966;2023-03-31T09:28:03;8.50;99.90
29501;DHT22;16450;50.288;10.966;2023-03-31T09:31:18;8.60;99.90
29501;DHT22;16450;50.288;10.966;2023-03-31T09:34:30;8.50;99.90
29501;DHT22;16450;50.288;10.966;2023-03-31T09:37:33;8.50;99.90
29501;DHT22;16450;50.288;10.966;2023-03-31T09:40:35;8.50;99.90
29501;DHT22;16450;50.288;10.966;2023-03-31T09:43:39;8.50;99.90
29501;DHT22;16450;50.288;10.966;2023-03-31T09:46:42;8.50;99.90
29501;DHT22;16450;50.288;10.966;2023-03-31T09:49:45;8.50;99.90
29501;DHT22;16450;50.288;10.966;2023-03-31T09:52:56;8.50;99.90
29501;DHT22;16450;50.288;10.966;2023-03-31T09:56:04;8.50;99.90
29501;DHT22;16450;50.288;10.966;2023-03-31T09:59:20;8.50;99.90
29501;DHT22;16450;50.288;10.966;2023-03-31T10:02:33;8.60;99.90
29501;DHT22;16450;50.288;10.966;2023-03-31T10:05:59;8.60;99.90
29501;DHT22;16450;50.288;10.966;2023-03-31T10:09:04;8.60;99.90
29501;DHT22;16450;50.288;10.966;2023-03-31T10:12:13;8.70;99.90
29501;DHT22;16450;50.288;10.966;2023-03-31T10:15:26;8.80;99.90
29501;DHT22;16450;50.288;10.966;2023-03-31T10:18:36;8.80;99.90
29501;DHT22;16450;50.288;10.966;2023-03-31T10:21:38;8.90;99.90
29501;DHT22;16450;50.288;10.966;2023-03-31T10:24:43;9.00;99.90
29501;DHT22;16450;50.288;10.966;2023-03-31T10:27:47;9.10;99.90
29501;DHT22;16450;50.288;10.966;2023-03-31T10:30:52;9.20;99.90
29501;DHT22;16450;50.288;10.966;2023-03-31T10:33:55;9.30;99.90
29501;DHT22;16450;50.288;10.966;2023-03-31T10:36:59;9.40;99.90
29501;DHT22;16450;50.288;10.966;2023-03-31T10:40:18;9.50;99.90
29501;DHT22;16450;50.288;10.966;2023-03-31T10:43:42;9.60;99.90
29501;DHT22;16450;50.288;10.966;2023-03-31T10:46:50;9.60;99.90
29501;DHT22;16450;50.288;10.966;2023-03-31T10:49:56;9.70;99.90
29501;DHT22;16450;50.288;10.966;2023-03-31T10:53:13;9.70;99.90
29501;DHT22;16450;50.288;10.966;2023-03-31T10:56:44;9.70;99.90
29501;DHT22;16450;50.288;10.966;2023-03-31T11:00:14;9.80;99.90
29501;DHT22;16450;50.288;10.966;2023-03-31T11:07:01;10.00;99.90
29501;DHT22;16450;50.288;10.966;2023-03-31T11:30:03;11.20;99.90
29501;DHT22;16450;50.288;10.966;2023-03-31T11:43:33;11.60;99.90
29501;DHT22;16450;50.288;10.966;2023-03-31T11:53:01;11.70;99.90
29501;DHT22;16450;50.288;10.966;2023-03-31T11:56:04;11.70;99.90
29501;DHT22;16450;50.288;10.966;2023-03-31T11:59:13;11.70;99.90
29501;DHT22;16450;50.288;10.966;2023-03-31T12:02:19;11.70;99.90
29501;DHT22;16450;50.288;10.966;2023-03-31T12:05:26;11.70;99.90
29501;DHT22;16450;50.288;10.966;2023-03-31T12:09:26;11.60;99.90
29501;DHT22;16450;50.288;10.966;2023-03-31T12:12:15;11.60;99.90
29501;DHT22;16450;50.288;10.966;2023-03-31T12:15:40;11.70;99.90
29501;DHT22;16450;50.288;10.966;2023-03-31T12:22:31;11.90;99.90
29501;DHT22;16450;50.288;10.966;2023-03-31T12:26:02;11.90;99.90
29501;DHT22;16450;50.288;10.966;2023-03-31T12:29:42;12.00;99.90
29501;DHT22;16450;50.288;10.966;2023-03-31T12:32:52;12.10;99.90
29501;DHT22;16450;50.288;10.966;2023-03-31T12:56:06;12.50;99.90
29501;DHT22;16450;50.288;10.966;2023-03-31T12:59:28;12.50;99.90
29501;DHT22;16450;50.288;10.966;2023-03-31T13:02:32;12.40;99.90
29501;DHT22;16450;50.288;10.966;2023-03-31T13:09:00;12.40;99.90
29501;DHT22;16450;50.288;10.966;2023-03-31T13:12:14;12.40;99.90
29501;DHT22;16450;50.288;10.966;2023-03-31T13:15:16;12.50;99.90
29501;DHT22;16450;50.288;10.966;2023-03-31T13:18:20;12.50;99.90
29501;DHT22;16450;50.288;10.966;2023-03-31T13:21:23;12.50;99.90
29501;DHT22;16450;50.288;10.966;2023-03-31T13:24:26;12.60;99.90
29501;DHT22;16450;50.288;10.966;2023-03-31T13:27:47;12.60;99.90
29501;DHT22;16450;50.288;10.966;2023-03-31T13:33:57;12.80;99.90
29501;DHT22;16450;50.288;10.966;2023-03-31T13:41:33;12.80;99.90
29501;DHT22;16450;50.288;10.966;2023-03-31T13:44:54;12.70;99.90
29501;DHT22;16450;50.288;10.966;2023-03-31T13:52:09;12.70;99.90
29501;DHT22;16450;50.288;10.966;2023-03-31T14:06:04;12.70;99.90
29501;DHT22;16450;50.288;10.966;2023-03-31T14:09:21;12.80;99.90
29501;DHT22;16450;50.288;10.966;2023-03-31T14:12:31;12.80;99.90
29501;DHT22;16450;50.288;10.966;2023-03-31T14:15:35;12.90;99.90
29501;DHT22;16450;50.288;10.966;2023-03-31T14:18:42;12.80;99.90
29501;DHT22;16450;50.288;10.966;2023-03-31T14:21:58;12.80;99.90
29501;DHT22;16450;50.288;10.966;2023-03-31T14:31:58;12.60;99.90
29501;DHT22;16450;50.288;10.966;2023-03-31T14:35:32;12.50;99.90
29501;DHT22;16450;50.288;10.966;2023-03-31T14:38:39;12.50;99.90
29501;DHT22;16450;50.288;10.966;2023-03-31T14:41:41;12.40;99.90
29501;DHT22;16450;50.288;10.966;2023-03-31T14:44:45;12.30;99.90
29501;DHT22;16450;50.288;10.966;2023-03-31T14:47:54;12.30;99.90
29501;DHT22;16450;50.288;10.966;2023-03-31T14:50:57;12.20;99.90
29501;DHT22;16450;50.288;10.966;2023-03-31T14:54:01;12.20;99.90
29501;DHT22;16450;50.288;10.966;2023-03-31T14:57:04;12.00;99.90
29501;DHT22;16450;50.288;10.966;2023-03-31T15:00:08;12.00;99.90
29501;DHT22;16450;50.288;10.966;2023-03-31T15:03:14;11.90;99.90
29501;DHT22;16450;50.288;10.966;2023-03-31T15:06:16;11.80;99.90
29501;DHT22;16450;50.288;10.966;2023-03-31T15:09:32;11.80;99.90
29501;DHT22;16450;50.288;10.966;2023-03-31T15:12:34;11.70;99.90
29501;DHT22;16450;50.288;10.966;2023-03-31T15:15:38;11.70;99.90
29501;DHT22;16450;50.288;10.966;2023-03-31T15:18:40;11.50;99.90
29501;DHT22;16450;50.288;10.966;2023-03-31T15:21:44;11.30;99.90
29501;DHT22;16450;50.288;10.966;2023-03-31T15:24:46;11.20;99.90
29501;DHT22;16450;50.288;10.966;2023-03-31T15:27:58;11.00;99.90
29501;DHT22;16450;50.288;10.966;2023-03-31T15:31:01;11.00;99.90
29501;DHT22;16450;50.288;10.966;2023-03-31T15:34:34;10.90;99.90
29501;DHT22;16450;50.288;10.966;2023-03-31T15:37:39;10.80;99.90
29501;DHT22;16450;50.288;10.966;2023-03-31T15:40:43;10.90;99.90
29501;DHT22;16450;50.288;10.966;2023-03-31T15:43:48;10.90;99.90
29501;DHT22;16450;50.288;10.966;2023-03-31T15:47:01;10.90;99.90
29501;DHT22;16450;50.288;10.966;2023-03-31T15:53:23;10.90;99.90
29501;DHT22;16450;50.288;10.966;2023-03-31T15:56:41;11.00;99.90
29501;DHT22;16450;50.288;10.966;2023-03-31T15:59:51;11.00;99.90
29501;DHT22;16450;50.288;10.966;2023-03-31T16:02:59;11.00;99.90
29501;DHT22;16450;50.288;10.966;2023-03-31T16:06:08;11.10;99.90
29501;DHT22;16450;50.288;10.966;2023-03-31T16:09:23;11.10;99.90
29501;DHT22;16450;50.288;10.966;2023-03-31T16:12:31;11.00;99.90
29501;DHT22;16450;50.288;10.966;2023-03-31T16:15:39;11.00;99.90
29501;DHT22;16450;50.288;10.966;2023-03-31T16:18:48;10.90;99.90
29501;DHT22;16450;50.288;10.966;2023-03-31T16:21:53;10.90;99.90
29501;DHT22;16450;50.288;10.966;2023-03-31T16:24:57;10.80;99.90
29501;DHT22;16450;50.288;10.966;2023-03-31T16:28:00;10.80;99.90
29501;DHT22;16450;50.288;10.966;2023-03-31T16:31:04;10.80;99.90
29501;DHT22;16450;50.288;10.966;2023-03-31T16:34:22;10.70;99.90
29501;DHT22;16450;50.288;10.966;2023-03-31T16:37:25;10.60;99.90
29501;DHT22;16450;50.288;10.966;2023-03-31T16:40:36;10.70;99.90
29501;DHT22;16450;50.288;10.966;2023-03-31T16:43:39;10.70;99.90
29501;DHT22;16450;50.288;10.966;2023-03-31T16:46:41;10.80;99.90
29501;DHT22;16450;50.288;10.966;2023-03-31T16:49:43;10.80;99.90
29501;DHT22;16450;50.288;10.966;2023-03-31T16:52:45;10.80;99.90
29501;DHT22;16450;50.288;10.966;2023-03-31T16:55:48;10.90;99.90
29501;DHT22;16450;50.288;10.966;2023-03-31T16:58:50;10.90;99.90
29501;DHT22;16450;50.288;10.966;2023-03-31T17:01:54;10.90;99.90
29501;DHT22;16450;50.288;10.966;2023-03-31T17:04:56;11.00;99.90
29501;DHT22;16450;50.288;10.966;2023-03-31T17:08:13;10.90;99.90
29501;DHT22;16450;50.288;10.966;2023-03-31T17:11:16;11.00;99.90
29501;DHT22;16450;50.288;10.966;2023-03-31T17:14:18;10.90;99.90
29501;DHT22;16450;50.288;10.966;2023-03-31T17:17:20;10.90;99.90
29501;DHT22;16450;50.288;10.966;2023-03-31T17:20:22;10.80;99.90
29501;DHT22;16450;50.288;10.966;2023-03-31T17:23:24;10.80;99.90
29501;DHT22;16450;50.288;10.966;2023-03-31T17:26:27;10.70;99.90
29501;DHT22;16450;50.288;10.966;2023-03-31T17:29:28;10.70;99.90
29501;DHT22;16450;50.288;10.966;2023-03-31T17:32:30;10.60;99.90
29501;DHT22;16450;50.288;10.966;2023-03-31T17:35:32;10.60;99.90
29501;DHT22;16450;50.288;10.966;2023-03-31T17:38:34;10.50;99.90
29501;DHT22;16450;50.288;10.966;2023-03-31T17:41:36;10.50;99.90
29501;DHT22;16450;50.288;10.966;2023-03-31T17:44:38;10.50;99.90
29501;DHT22;16450;50.288;10.966;2023-03-31T17:47:41;10.50;99.90
29501;DHT22;16450;50.288;10.966;2023-03-31T17:50:44;10.40;99.90
29501;DHT22;16450;50.288;10.966;2023-03-31T17:53:47;10.40;99.90
29501;DHT22;16450;50.288;10.966;2023-03-31T17:56:49;10.30;99.90
29501;DHT22;16450;50.288;10.966;2023-03-31T17:59:51;10.30;99.90
29501;DHT22;16450;50.288;10.966;2023-03-31T18:02:52;10.30;99.90
29501;DHT22;16450;50.288;10.966;2023-03-31T18:05:56;10.20;99.90
29501;DHT22;16450;50.288;10.966;2023-03-31T18:08:58;10.20;99.90
29501;DHT22;16450;50.288;10.966;2023-03-31T18:12:00;10.10;99.90
29501;DHT22;16450;50.288;10.966;2023-03-31T18:15:03;10.10;99.90
29501;DHT22;16450;50.288;10.966;2023-03-31T18:18:07;10.00;99.90
29501;DHT22;16450;50.288;10.966;2023-03-31T18:21:10;10.00;99.90
29501;DHT22;16450;50.288;10.966;2023-03-31T18:24:13;10.00;99.90
29501;DHT22;16450;50.288;10.966;2023-03-31T18:27:15;9.90;99.90
29501;DHT22;16450;50.288;10.966;2023-03-31T18:30:17;9.90;99.90
29501;DHT22;16450;50.288;10.966;2023-03-31T18:33:19;9.90;99.90
29501;DHT22;16450;50.288;10.966;2023-03-31T18:36:22;9.90;99.90
29501;DHT22;16450;50.288;10.966;2023-03-31T18:39:24;9.90;99.90
29501;DHT22;16450;50.288;10.966;2023-03-31T18:42:26;9.90;99.90
29501;DHT22;16450;50.288;10.966;2023-03-31T18:45:28;9.80;99.90
29501;DHT22;16450;50.288;10.966;2023-03-31T18:48:31;9.80;99.90
29501;DHT22;16450;50.288;10.966;2023-03-31T18:51:33;9.80;99.90
29501;DHT22;16450;50.288;10.966;2023-03-31T18:54:35;9.70;99.90
29501;DHT22;16450;50.288;10.966;2023-03-31T18:57:37;9.70;99.90
29501;DHT22;16450;50.288;10.966;2023-03-31T19:00:39;9.60;99.90
29501;DHT22;16450;50.288;10.966;2023-03-31T19:03:42;9.60;99.90
29501;DHT22;16450;50.288;10.966;2023-03-31T19:06:45;9.50;99.90
29501;DHT22;16450;50.288;10.966;2023-03-31T19:09:47;9.50;99.90
29501;DHT22;16450;50.288;10.966;2023-03-31T19:12:49;9.50;99.90
29501;DHT22;16450;50.288;10.966;2023-03-31T19:15:51;9.40;99.90
29501;DHT22;16450;50.288;10.966;2023-03-31T19:18:54;9.40;99.90
29501;DHT22;16450;50.288;10.966;2023-03-31T19:21:56;9.40;99.90
29501;DHT22;16450;50.288;10.966;2023-03-31T19:24:59;9.30;99.90
29501;DHT22;16450;50.288;10.966;2023-03-31T19:28:00;9.30;99.90
29501;DHT22;16450;50.288;10.966;2023-03-31T19:31:03;9.20;99.90
29501;DHT22;16450;50.288;10.966;2023-03-31T19:34:07;9.20;99.90
29501;DHT22;16450;50.288;10.966;2023-03-31T19:37:11;9.20;99.90
29501;DHT22;16450;50.288;10.966;2023-03-31T19:40:14;9.20;99.90
29501;DHT22;16450;50.288;10.966;2023-03-31T19:43:22;9.20;99.90
29501;DHT22;16450;50.288;10.966;2023-03-31T19:46:24;9.20;99.90
29501;DHT22;16450;50.288;10.966;2023-03-31T19:49:26;9.10;99.90
29501;DHT22;16450;50.288;10.966;2023-03-31T19:52:28;9.10;99.90
29501;DHT22;16450;50.288;10.966;2023-03-31T19:55:30;9.10;99.90
29501;DHT22;16450;50.288;10.966;2023-03-31T19:58:33;9.10;99.90
29501;DHT22;16450;50.288;10.966;2023-03-31T20:01:38;9.10;99.90
29501;DHT22;16450;50.288;10.966;2023-03-31T20:04:40;9.10;99.90
29501;DHT22;16450;50.288;10.966;2023-03-31T20:07:42;9.10;99.90
29501;DHT22;16450;50.288;10.966;2023-03-31T20:10:44;9.10;99.90
29501;DHT22;16450;50.288;10.966;2023-03-31T20:13:46;9.10;99.90
29501;DHT22;16450;50.288;10.966;2023-03-31T20:16:48;9.30;99.90
29501;DHT22;16450;50.288;10.966;2023-03-31T20:19:51;9.10;99.90
29501;DHT22;16450;50.288;10.966;2023-03-31T20:22:53;9.20;99.90
29501;DHT22;16450;50.288;10.966;2023-03-31T20:25:55;9.20;99.90
29501;DHT22;16450;50.288;10.966;2023-03-31T20:28:59;9.20;99.90
29501;DHT22;16450;50.288;10.966;2023-03-31T20:32:03;9.20;99.90
29501;DHT22;16450;50.288;10.966;2023-03-31T20:35:06;9.20;99.90
29501;DHT22;16450;50.288;10.966;2023-03-31T20:38:08;9.20;99.90
29501;DHT22;16450;50.288;10.966;2023-03-31T20:41:10;9.20;99.90
29501;DHT22;16450;50.288;10.966;2023-03-31T20:44:13;9.10;99.90
29501;DHT22;16450;50.288;10.966;2023-03-31T20:47:16;9.20;99.90
29501;DHT22;16450;50.288;10.966;2023-03-31T20:50:18;9.20;99.90
29501;DHT22;16450;50.288;10.966;2023-03-31T20:53:23;9.20;99.90
29501;DHT22;16450;50.288;10.966;2023-03-31T20:56:30;9.20;99.90
29501;DHT22;16450;50.288;10.966;2023-03-31T20:59:32;9.10;99.90
29501;DHT22;16450;50.288;10.966;2023-03-31T21:02:34;9.10;99.90
29501;DHT22;16450;50.288;10.966;2023-03-31T21:05:44;9.10;99.90
29501;DHT22;16450;50.288;10.966;2023-03-31T21:08:50;9.10;99.90
29501;DHT22;16450;50.288;10.966;2023-03-31T21:11:52;9.10;99.90
29501;DHT22;16450;50.288;10.966;2023-03-31T21:14:54;9.00;99.90
29501;DHT22;16450;50.288;10.966;2023-03-31T21:17:56;9.10;99.90
29501;DHT22;16450;50.288;10.966;2023-03-31T21:21:03;9.00;99.90
29501;DHT22;16450;50.288;10.966;2023-03-31T21:24:07;9.00;99.90
29501;DHT22;16450;50.288;10.966;2023-03-31T21:27:09;9.00;99.90
29501;DHT22;16450;50.288;10.966;2023-03-31T21:30:11;9.00;99.90
29501;DHT22;16450;50.288;10.966;2023-03-31T21:33:13;9.00;99.90
29501;DHT22;16450;50.288;10.966;2023-03-31T21:36:18;9.00;99.90
29501;DHT22;16450;50.288;10.966;2023-03-31T21:39:22;9.00;99.90
29501;DHT22;16450;50.288;10.966;2023-03-31T21:42:23;9.00;99.90
29501;DHT22;16450;50.288;10.966;2023-03-31T21:45:25;9.00;99.90
29501;DHT22;16450;50.288;10.966;2023-03-31T21:48:28;9.00;99.90
29501;DHT22;16450;50.288;10.966;2023-03-31T21:51:30;9.00;99.90
29501;DHT22;16450;50.288;10.966;2023-03-31T21:54:32;9.00;99.90